Belvidere, New Jersey
Current Conditions -  °F | °C
As of 8:51 PM on Sunday 25 Jan 2015 (Local Time) from KABE Reporting Station
Overcast Overcast  
Wind Chill: 26°   Ceiling: 5500
Heat Index: 33°   Visibility: 10mi
Dew Point: 16°   Wind: 8mph
Humidity: 50%   Direction: 50°NE
Pressure: 29.94"   Gusts: NA
Location:  40.83°N, 75.08°W
Report Text: KABE 260151Z 05007KT 10SM OVC055 01/M09 A2994 RMK AO2 SLP140 T00061089
Loading
Personal Weather Stations






























Interactive Weather Map New forecast layout! Learn more

10-Day Weather Forecast

Advertisements
Track Severe Weather on mobile